Time;durP1;ratioP1;P1;durP2;ratioP2;P2;SDS_P1;SDS_P2;PMS_P1;PMS_P2;Temp;Humidity;BMP_temperature;BMP_pressure;BME280_temperature;BME280_humidity;BME280_pressure;Samples;Min_cycle;Max_cycle;Signal;HPM_P1;HPM_P2
2023/11/14 00:01:53;;;;;;;;;;;;;;;12.24;100.00;99904.22;5038214;28;19966;-41
2023/11/14 00:04:19;;;;;;;;;;;;;;;12.24;100.00;99909.63;5051480;28;19916;-40
2023/11/14 00:06:44;;;;;;;;;;;;;;;12.22;100.00;99912.53;5044436;28;19921;-41
2023/11/14 00:09:09;;;;;;;;;;;;;;;12.20;100.00;99916.50;5045812;28;20330;-41
2023/11/14 00:11:36;;;;;;;;;;;;;;;12.16;100.00;99908.00;5048885;28;19912;-40
2023/11/14 00:14:02;;;;;;;;;;;;;;;12.14;100.00;99915.50;5032637;28;20376;-41
2023/11/14 00:16:27;;;;;;;;;;;;;;;12.16;100.00;99907.16;5036114;28;20360;-41
2023/11/14 00:18:52;;;;;;;;;;;;;;;12.10;100.00;99908.88;5040630;28;19970;-40
2023/11/14 00:21:18;;;;;;;;;;;;;;;12.08;100.00;99925.28;5041211;28;19920;-40
2023/11/14 00:23:44;;;;;;;;;;;;;;;12.05;100.00;99917.59;5051998;28;19940;-40
2023/11/14 00:26:09;;;;;;;;;;;;;;;12.03;100.00;99930.47;5054794;28;19916;-40
2023/11/14 00:28:34;;;;;;;;;;;;;;;12.06;100.00;99921.13;5054483;28;19923;-39
2023/11/14 00:30:59;;;;;;;;;;;;;;;12.04;100.00;99912.44;5040349;28;19917;-40
2023/11/14 00:33:25;;;;;;;;;;;;;;;12.01;100.00;99921.78;5048549;28;20256;-41
2023/11/14 00:35:50;;;;;;;;;;;;;;;12.00;100.00;99930.88;5054406;28;20339;-41
2023/11/14 00:38:15;;;;;;;;;;;;;;;11.98;100.00;99943.78;5053104;28;20371;-41
2023/11/14 00:40:41;;;;;;;;;;;;;;;11.99;100.00;99939.22;5054431;28;19917;-41
2023/11/14 00:43:06;;;;;;;;;;;;;;;11.97;100.00;99938.59;5053647;28;19917;-39
2023/11/14 00:45:31;;;;;;;;;;;;;;;11.97;100.00;99935.88;5035308;28;19924;-41
2023/11/14 00:47:57;;;;;;;;;;;;;;;11.96;100.00;99945.03;5042722;28;19917;-41
2023/11/14 00:50:23;;;;;;;;;;;;;;;11.97;100.00;99944.81;5048558;28;19917;-40
2023/11/14 00:52:48;;;;;;;;;;;;;;;11.98;100.00;99943.78;5043498;28;20282;-40
2023/11/14 00:55:13;;;;;;;;;;;;;;;11.98;100.00;99943.78;5036074;28;19917;-40
2023/11/14 00:57:39;;;;;;;;;;;;;;;12.01;100.00;99946.03;5054027;28;20290;-40
2023/11/14 01:00:05;;;;;;;;;;;;;;;12.07;100.00;99966.75;5047098;28;19917;-40
2023/11/14 01:02:30;;;;;;;;;;;;;;;12.13;100.00;99950.75;5040633;28;19917;-38
2023/11/14 01:04:57;;;;;;;;;;;;;;;12.13;100.00;99961.56;5053715;28;19917;-41
2023/11/14 01:07:22;;;;;;;;;;;;;;;12.12;100.00;99965.31;5052555;28;20294;-40
2023/11/14 01:09:48;;;;;;;;;;;;;;;12.14;100.00;99964.06;5036955;28;20003;-40
2023/11/14 01:12:13;;;;;;;;;;;;;;;12.08;100.00;99960.34;5036667;28;20012;-41
2023/11/14 01:14:39;;;;;;;;;;;;;;;12.08;100.00;99983.75;5052255;28;20019;-40
2023/11/14 01:17:04;;;;;;;;;;;;;;;12.14;100.00;99971.28;5034107;28;19974;-38
2023/11/14 01:19:30;;;;;;;;;;;;;;;12.15;100.00;99972.97;5033908;28;19952;-40
2023/11/14 01:21:55;;;;;;;;;;;;;;;12.16;100.00;99974.59;5050810;28;19925;-40
2023/11/14 01:24:20;;;;;;;;;;;;;;;12.18;100.00;99983.31;5053700;28;19917;-40
2023/11/14 01:26:46;;;;;;;;;;;;;;;12.17;100.00;99971.72;5041685;28;19917;-39
2023/11/14 01:29:11;;;;;;;;;;;;;;;12.22;100.00;99971.91;5033741;28;20007;-41
2023/11/14 01:31:36;;;;;;;;;;;;;;;12.25;100.00;99976.03;5052921;28;19916;-40
2023/11/14 01:34:02;;;;;;;;;;;;;;;12.21;100.00;99981.00;5053483;28;19912;-41
2023/11/14 01:36:27;;;;;;;;;;;;;;;12.20;100.00;99973.97;5049465;28;19917;-40
2023/11/14 01:38:53;;;;;;;;;;;;;;;12.19;100.00;99983.13;5047258;28;19924;-41
2023/11/14 01:41:18;;;;;;;;;;;;;;;12.22;100.00;99965.69;5044577;28;19917;-41
2023/11/14 01:43:43;;;;;;;;;;;;;;;12.22;100.00;99981.88;5047279;28;19916;-41
2023/11/14 01:46:10;;;;;;;;;;;;;;;12.25;100.00;99974.16;5052654;28;19923;-41
2023/11/14 01:48:35;;;;;;;;;;;;;;;12.28;100.00;100005.28;5027606;28;20380;-41
2023/11/14 01:51:00;;;;;;;;;;;;;;;12.25;100.00;100008.41;5034879;28;20021;-41
2023/11/14 01:53:26;;;;;;;;;;;;;;;12.24;100.00;100009.44;5040371;28;19920;-41
2023/11/14 01:55:51;;;;;;;;;;;;;;;12.21;100.00;100015.25;5032962;28;19916;-41
2023/11/14 01:58:16;;;;;;;;;;;;;;;12.20;100.00;100013.63;5039631;28;19956;-40
2023/11/14 02:00:41;;;;;;;;;;;;;;;12.19;100.00;100015.50;5034486;28;19964;-41
2023/11/14 02:03:06;;;;;;;;;;;;;;;12.23;100.00;100029.38;5022658;28;20026;-41
2023/11/14 02:05:32;;;;;;;;;;;;;;;12.23;100.00;100029.38;5051072;28;19956;-41
2023/11/14 02:07:57;;;;;;;;;;;;;;;12.24;100.00;100022.91;5052010;28;19948;-41
2023/11/14 02:10:22;;;;;;;;;;;;;;;12.28;100.00;100019.59;5034670;28;19916;-41
2023/11/14 02:12:47;;;;;;;;;;;;;;;12.27;100.00;100036.00;5033619;28;20014;-41
2023/11/14 02:15:14;;;;;;;;;;;;;;;12.26;100.00;100050.53;5050509;28;19924;-41
2023/11/14 02:17:41;;;;;;;;;;;;;;;12.26;100.00;100032.47;5052229;28;19921;-40
2023/11/14 02:20:07;;;;;;;;;;;;;;;12.25;100.00;100040.78;5051449;28;20000;-41
2023/11/14 02:22:32;;;;;;;;;;;;;;;12.25;100.00;100048.88;5052130;28;20410;-40
2023/11/14 02:24:58;;;;;;;;;;;;;;;12.28;100.00;100037.66;5047919;28;19924;-41
2023/11/14 02:27:23;;;;;;;;;;;;;;;12.26;100.00;100035.16;5034498;28;19936;-41
2023/11/14 02:29:53;;;;;;;;;;;;;;;12.28;100.00;100045.75;5039671;28;19917;-40
2023/11/14 02:32:19;;;;;;;;;;;;;;;12.28;100.00;100035.78;5053003;28;20007;-38
2023/11/14 02:34:44;;;;;;;;;;;;;;;12.27;100.00;100041.41;5056879;28;19979;-40
2023/11/14 02:37:10;;;;;;;;;;;;;;;12.25;100.00;100048.88;5053742;28;19917;-38
2023/11/14 02:39:36;;;;;;;;;;;;;;;12.23;100.00;100054.47;5040349;28;19917;-39
2023/11/14 02:42:01;;;;;;;;;;;;;;;12.20;100.00;100046.81;5035254;28;19921;-38
2023/11/14 02:44:27;;;;;;;;;;;;;;;12.21;100.00;100055.72;5046956;28;19917;-41
2023/11/14 02:46:52;;;;;;;;;;;;;;;12.20;100.00;100059.47;5046194;28;19940;-40
2023/11/14 02:49:17;;;;;;;;;;;;;;;12.23;100.00;100050.94;5049453;28;19916;-41
2023/11/14 02:51:43;;;;;;;;;;;;;;;12.22;100.00;100038.50;5047383;28;20007;-40
2023/11/14 02:54:08;;;;;;;;;;;;;;;12.22;100.00;100063.63;5044743;28;19955;-40
2023/11/14 02:56:33;;;;;;;;;;;;;;;12.22;100.00;100068.19;5051957;28;19963;-40
2023/11/14 02:59:00;;;;;;;;;;;;;;;12.22;100.00;100089.78;5051153;28;19917;-40
2023/11/14 03:01:26;;;;;;;;;;;;;;;12.25;100.00;100073.16;5037094;28;20046;-40
2023/11/14 03:03:51;;;;;;;;;;;;;;;12.23;100.00;100086.03;5033296;28;19935;-40
2023/11/14 03:06:16;;;;;;;;;;;;;;;12.24;100.00;100087.66;5050350;28;19952;-40
2023/11/14 03:08:42;;;;;;;;;;;;;;;12.23;100.00;100091.41;5044152;28;19971;-39
2023/11/14 03:11:08;;;;;;;;;;;;;;;12.22;100.00;100082.50;5041081;28;19917;-40
2023/11/14 03:13:33;;;;;;;;;;;;;;;12.23;100.00;100103.03;5033633;28;19924;-40
2023/11/14 03:15:58;;;;;;;;;;;;;;;12.25;100.00;100110.94;5032332;28;19925;-40
2023/11/14 03:18:23;;;;;;;;;;;;;;;12.25;100.00;100081.25;5032311;28;19940;-40
2023/11/14 03:20:48;;;;;;;;;;;;;;;12.25;100.00;100084.78;5048156;28;19916;-40
2023/11/14 03:23:14;;;;;;;;;;;;;;;12.22;100.00;100095.16;5051392;28;19913;-40
2023/11/14 03:25:39;;;;;;;;;;;;;;;12.21;100.00;100105.09;5051342;28;20019;-39
2023/11/14 03:28:04;;;;;;;;;;;;;;;12.21;100.00;100115.06;5051141;28;19948;-39
2023/11/14 03:30:30;;;;;;;;;;;;;;;12.22;100.00;100111.34;5051928;28;19943;-39
2023/11/14 03:32:55;;;;;;;;;;;;;;;12.23;100.00;100097.63;5039814;28;19916;-40
2023/11/14 03:35:20;;;;;;;;;;;;;;;12.25;100.00;100106.34;5046937;28;19920;-40
2023/11/14 03:37:45;;;;;;;;;;;;;;;12.27;100.00;100098.06;5042039;28;19924;-42
2023/11/14 03:40:11;;;;;;;;;;;;;;;12.27;100.00;100106.16;5031333;28;19917;-39
2023/11/14 03:42:36;;;;;;;;;;;;;;;12.24;100.00;100109.25;5031639;28;19924;-38
2023/11/14 03:45:02;;;;;;;;;;;;;;;12.19;100.00;100122.53;5045821;28;19917;-39
2023/11/14 03:47:27;;;;;;;;;;;;;;;12.19;100.00;100099.13;5051131;28;19923;-40
2023/11/14 03:49:52;;;;;;;;;;;;;;;12.19;100.00;100118.00;5045652;28;19960;-40
2023/11/14 03:52:18;;;;;;;;;;;;;;;12.15;100.00;100121.31;5055370;28;19944;-40
2023/11/14 03:54:44;;;;;;;;;;;;;;;12.13;100.00;100123.41;5055610;28;19912;-40
2023/11/14 03:57:10;;;;;;;;;;;;;;;12.11;100.00;100111.97;5055460;28;19917;-39
2023/11/14 03:59:36;;;;;;;;;;;;;;;12.10;100.00;100121.13;5055252;28;19924;-40
2023/11/14 04:02:01;;;;;;;;;;;;;;;12.08;100.00;100115.91;5055388;28;19956;-41
2023/11/14 04:04:26;;;;;;;;;;;;;;;12.03;100.00;100095.00;5042476;28;19924;-41
2023/11/14 04:06:52;;;;;;;;;;;;;;;12.01;100.00;100105.16;5055466;28;20003;-41
2023/11/14 04:09:17;;;;;;;;;;;;;;;12.06;100.00;100123.41;5055071;28;19912;-40
2023/11/14 04:11:46;;;;;;;;;;;;;;;12.06;100.00;100113.44;5055192;28;19913;-39
2023/11/14 04:14:11;;;;;;;;;;;;;;;12.03;100.00;100118.41;5054494;28;19920;-40
2023/11/14 04:16:36;;;;;;;;;;;;;;;11.99;100.00;100123.41;5053662;28;20405;-39
2023/11/14 04:19:02;;;;;;;;;;;;;;;11.99;100.00;100118.00;5054177;28;20338;-41
2023/11/14 04:21:27;;;;;;;;;;;;;;;12.00;100.00;100125.06;5054073;28;20290;-39
2023/11/14 04:23:52;;;;;;;;;;;;;;;12.03;100.00;100116.56;5052349;28;19961;-39
2023/11/14 04:26:17;;;;;;;;;;;;;;;12.00;100.00;100122.34;5054155;28;20017;-40
2023/11/14 04:28:43;;;;;;;;;;;;;;;12.01;100.00;100128.59;5035928;28;19924;-40
2023/11/14 04:31:08;;;;;;;;;;;;;;;12.01;100.00;100123.22;5041142;28;19923;-37
2023/11/14 04:33:34;;;;;;;;;;;;;;;11.96;100.00;100123.84;5036873;28;19917;-39
2023/11/14 04:35:59;;;;;;;;;;;;;;;11.99;100.00;100118.00;5040886;28;19924;-39
2023/11/14 04:38:24;;;;;;;;;;;;;;;11.99;100.00;100112.63;5035975;28;19924;-37
2023/11/14 04:40:50;;;;;;;;;;;;;;;11.97;100.00;100133.56;5034790;28;19917;-40
2023/11/14 04:43:15;;;;;;;;;;;;;;;11.95;100.00;100132.94;5034747;28;20010;-41
2023/11/14 04:45:41;;;;;;;;;;;;;;;11.94;100.00;100125.91;5034451;28;19920;-40
2023/11/14 04:48:06;;;;;;;;;;;;;;;11.97;100.00;100124.66;5035578;28;19923;-39
2023/11/14 04:50:31;;;;;;;;;;;;;;;11.99;100.00;100150.38;5034670;28;19992;-40
2023/11/14 04:52:56;;;;;;;;;;;;;;;12.01;100.00;100131.31;5039938;28;19921;-40
2023/11/14 04:55:21;;;;;;;;;;;;;;;11.99;100.00;100128.81;5022483;28;19963;-40
2023/11/14 04:57:47;;;;;;;;;;;;;;;12.01;100.00;100142.91;5054032;28;19971;-40
2023/11/14 05:00:12;;;;;;;;;;;;;;;12.00;100.00;100141.25;5052118;28;19924;-41
2023/11/14 05:02:38;;;;;;;;;;;;;;;12.00;100.00;100156.59;5045819;28;19925;-40
2023/11/14 05:05:04;;;;;;;;;;;;;;;11.99;100.00;100141.47;5046946;28;20003;-40
2023/11/14 05:07:29;;;;;;;;;;;;;;;12.00;100.00;100143.09;5040460;28;19952;-40
2023/11/14 05:09:54;;;;;;;;;;;;;;;12.03;100.00;100134.59;5043107;28;19931;-40
2023/11/14 05:12:19;;;;;;;;;;;;;;;12.01;100.00;100137.53;5053513;28;20015;-41
2023/11/14 05:14:45;;;;;;;;;;;;;;;12.05;100.00;100121.75;5051681;28;20334;-40
2023/11/14 05:17:10;;;;;;;;;;;;;;;12.05;100.00;100117.16;5051359;28;20393;-40
2023/11/14 05:19:35;;;;;;;;;;;;;;;12.05;100.00;100117.16;5051695;28;19917;-39
2023/11/14 05:22:00;;;;;;;;;;;;;;;12.00;100.00;100135.84;5051959;28;19908;-40
2023/11/14 05:24:26;;;;;;;;;;;;;;;12.00;100.00;100140.41;5051846;28;19921;-39
2023/11/14 05:26:51;;;;;;;;;;;;;;;12.00;100.00;100130.44;5051651;28;20053;-40
2023/11/14 05:29:16;;;;;;;;;;;;;;;12.00;100.00;100119.66;5050905;28;19917;-41
2023/11/14 05:31:41;;;;;;;;;;;;;;;12.02;100.00;100133.78;5048439;28;20355;-41
2023/11/14 05:34:07;;;;;;;;;;;;;;;12.01;100.00;100151.00;5032541;28;19963;-41
2023/11/14 05:36:33;;;;;;;;;;;;;;;12.03;100.00;100162.41;5047862;28;19975;-40
2023/11/14 05:38:59;;;;;;;;;;;;;;;12.05;100.00;100164.91;5048395;28;20368;-40
2023/11/14 05:41:24;;;;;;;;;;;;;;;12.07;100.00;100149.34;5051600;28;20385;-41
2023/11/14 05:43:49;;;;;;;;;;;;;;;12.11;100.00;100141.66;5051453;28;19917;-42
2023/11/14 05:46:14;;;;;;;;;;;;;;;12.13;100.00;100142.28;5056159;28;19933;-40
2023/11/14 05:48:39;;;;;;;;;;;;;;;12.10;100.00;100157.00;5050602;28;19970;-40
2023/11/14 05:51:05;;;;;;;;;;;;;;;12.11;100.00;100168.63;5051205;28;19920;-40
2023/11/14 05:53:30;;;;;;;;;;;;;;;12.14;100.00;100168.19;5051085;28;20034;-41
2023/11/14 05:55:56;;;;;;;;;;;;;;;12.12;100.00;100167.59;5051181;28;19967;-40
2023/11/14 05:58:21;;;;;;;;;;;;;;;12.13;100.00;100174.63;5050339;28;19921;-41
2023/11/14 06:00:47;;;;;;;;;;;;;;;12.16;100.00;100176.91;5049954;28;19954;-40
2023/11/14 06:03:12;;;;;;;;;;;;;;;12.17;100.00;100178.59;5052466;28;19948;-40
2023/11/14 06:05:37;;;;;;;;;;;;;;;12.18;100.00;100199.94;5052707;28;19959;-39
2023/11/14 06:08:03;;;;;;;;;;;;;;;12.17;100.00;100200.19;5051653;28;19912;-39
2023/11/14 06:10:29;;;;;;;;;;;;;;;12.20;100.00;100191.66;5051752;28;19921;-41
2023/11/14 06:12:54;;;;;;;;;;;;;;;12.20;100.00;100200.59;5052160;28;20003;-41
2023/11/14 06:15:19;;;;;;;;;;;;;;;12.20;100.00;100202.44;5052179;28;19924;-41
2023/11/14 06:17:44;;;;;;;;;;;;;;;12.22;100.00;100197.69;5052945;28;19920;-41
2023/11/14 06:20:10;;;;;;;;;;;;;;;12.23;100.00;100193.94;5053316;28;19944;-39
2023/11/14 06:22:35;;;;;;;;;;;;;;;12.26;100.00;100193.50;5035143;28;20374;-40
2023/11/14 06:25:03;;;;;;;;;;;;;;;12.25;100.00;100194.56;5052282;28;19920;-41
2023/11/14 06:27:28;;;;;;;;;;;;;;;12.25;100.00;100178.38;5052132;28;19913;-41
2023/11/14 06:29:55;;;;;;;;;;;;;;;12.23;100.00;100175.88;5051772;28;20489;-40
2023/11/14 06:32:20;;;;;;;;;;;;;;;12.23;100.00;100183.16;5051598;28;20298;-41
2023/11/14 06:34:45;;;;;;;;;;;;;;;12.21;100.00;100190.59;5052591;28;19913;-41
2023/11/14 06:37:10;;;;;;;;;;;;;;;12.21;100.00;100190.59;5052554;28;20007;-40
2023/11/14 06:39:37;;;;;;;;;;;;;;;12.16;100.00;100187.72;5052582;28;19958;-40
2023/11/14 06:42:03;;;;;;;;;;;;;;;12.11;100.00;100174.00;5017751;28;19916;-41
2023/11/14 06:44:28;;;;;;;;;;;;;;;12.08;100.00;100178.81;5051762;28;19917;-41
2023/11/14 06:46:53;;;;;;;;;;;;;;;12.05;100.00;100181.91;5052153;28;19913;-40
2023/11/14 06:49:19;;;;;;;;;;;;;;;12.02;100.00;100187.72;5051761;28;19917;-40
2023/11/14 06:51:45;;;;;;;;;;;;;;;12.06;100.00;100198.94;5052380;28;19955;-41
2023/11/14 06:54:11;;;;;;;;;;;;;;;12.07;100.00;100197.88;5051959;28;19912;-41
2023/11/14 06:56:36;;;;;;;;;;;;;;;12.08;100.00;100202.22;5051708;28;19920;-39
2023/11/14 06:59:01;;;;;;;;;;;;;;;12.14;100.00;100206.81;5051692;28;19917;-41
2023/11/14 07:01:26;;;;;;;;;;;;;;;12.14;100.00;100217.59;5051387;28;20319;-39
2023/11/14 07:03:52;;;;;;;;;;;;;;;12.17;100.00;100221.75;5052295;28;19995;-41
2023/11/14 07:06:19;;;;;;;;;;;;;;;12.19;100.00;100214.25;5034021;28;19973;-41
2023/11/14 07:08:44;;;;;;;;;;;;;;;12.22;100.00;100212.00;5033938;28;19967;-41
2023/11/14 07:11:11;;;;;;;;;;;;;;;12.22;100.00;100224.66;5049262;28;19917;-41
2023/11/14 07:13:36;;;;;;;;;;;;;;;12.24;100.00;100215.31;5052861;28;19921;-41
2023/11/14 07:16:01;;;;;;;;;;;;;;;12.25;100.00;100225.06;5051131;28;20375;-41
2023/11/14 07:18:26;;;;;;;;;;;;;;;12.23;100.00;100218.22;5051224;28;19939;-39
2023/11/14 07:20:52;;;;;;;;;;;;;;;12.27;100.00;100224.88;5051669;28;19913;-41
2023/11/14 07:23:17;;;;;;;;;;;;;;;12.29;100.00;100228.16;5053333;28;19939;-40
2023/11/14 07:25:44;;;;;;;;;;;;;;;12.31;100.00;100223.41;5055693;28;19932;-41
2023/11/14 07:28:11;;;;;;;;;;;;;;;12.33;100.00;100215.94;5055679;28;19966;-40
2023/11/14 07:30:36;;;;;;;;;;;;;;;12.30;100.00;100222.56;5055920;28;19915;-40
2023/11/14 07:33:02;;;;;;;;;;;;;;;12.33;100.00;100205.13;5055316;28;20205;-40
2023/11/14 07:35:27;;;;;;;;;;;;;;;12.33;100.00;100207.84;5055005;28;20009;-39
2023/11/14 07:37:52;;;;;;;;;;;;;;;12.33;100.00;100215.94;5055453;28;20053;-40
2023/11/14 07:40:19;;;;;;;;;;;;;;;12.35;100.00;100208.47;5055908;28;19920;-40
2023/11/14 07:42:45;;;;;;;;;;;;;;;12.34;100.00;100216.75;5051200;28;20018;-41
2023/11/14 07:45:10;;;;;;;;;;;;;;;12.30;100.00;100217.19;5043380;28;20502;-41
2023/11/14 07:47:35;;;;;;;;;;;;;;;12.25;100.00;100225.06;5037315;28;19918;-41
2023/11/14 07:50:00;;;;;;;;;;;;;;;12.24;100.00;100239.59;5023377;28;20287;-42
2023/11/14 07:52:27;;;;;;;;;;;;;;;12.21;100.00;100237.31;5044090;28;19917;-40
2023/11/14 07:54:53;;;;;;;;;;;;;;;12.22;100.00;100235.47;5050878;28;20348;-41
2023/11/14 07:57:18;;;;;;;;;;;;;;;12.22;100.00;100219.28;5047372;28;19924;-41
2023/11/14 07:59:44;;;;;;;;;;;;;;;12.26;100.00;100223.19;5042983;28;19924;-42
2023/11/14 08:02:09;;;;;;;;;;;;;;;12.27;100.00;100222.19;5047226;28;20314;-41
2023/11/14 08:04:34;;;;;;;;;;;;;;;12.30;100.00;100222.56;5044762;28;19916;-41
2023/11/14 08:07:00;;;;;;;;;;;;;;;12.30;100.00;100216.34;5045092;28;19921;-40
2023/11/14 08:09:25;;;;;;;;;;;;;;;12.37;100.00;100209.06;5049196;28;19921;-40
2023/11/14 08:11:50;;;;;;;;;;;;;;;12.37;100.00;100203.66;5044638;28;19916;-40
2023/11/14 08:14:15;;;;;;;;;;;;;;;12.51;100.00;100197.22;5046304;28;19935;-40
2023/11/14 08:16:40;;;;;;;;;;;;;;;12.59;100.00;100203.44;5039565;28;20012;-40
2023/11/14 08:19:06;;;;;;;;;;;;;;;12.65;100.00;100197.19;5034667;28;20374;-41
2023/11/14 08:21:31;;;;;;;;;;;;;;;12.71;100.00;100204.44;5042042;28;20379;-41
2023/11/14 08:23:56;;;;;;;;;;;;;;;12.74;100.00;100195.91;5054345;28;19916;-40
2023/11/14 08:26:22;;;;;;;;;;;;;;;12.69;100.00;100203.81;5041648;28;19916;-40
2023/11/14 08:28:47;;;;;;;;;;;;;;;12.56;100.00;100199.31;5044907;28;20008;-40
2023/11/14 08:31:12;;;;;;;;;;;;;;;12.56;100.00;100204.69;5041058;28;20327;-41
2023/11/14 08:33:38;;;;;;;;;;;;;;;12.60;100.00;100207.78;5041112;28;19967;-41
2023/11/14 08:36:03;;;;;;;;;;;;;;;12.66;100.00;100199.66;5039206;28;20291;-41
2023/11/14 08:38:28;;;;;;;;;;;;;;;12.59;100.00;100201.56;5044841;28;20007;-41
2023/11/14 08:40:55;;;;;;;;;;;;;;;12.55;100.00;100207.59;5053044;28;19999;-41
2023/11/14 08:43:21;;;;;;;;;;;;;;;12.48;100.00;100219.25;5049272;28;20354;-42
2023/11/14 08:45:46;;;;;;;;;;;;;;;12.44;100.00;100201.78;5047695;28;19956;-40
2023/11/14 08:48:11;;;;;;;;;;;;;;;12.45;100.00;100202.63;5048595;28;19929;-41
2023/11/14 08:50:38;;;;;;;;;;;;;;;12.50;100.00;100198.25;5053837;28;19916;-44
2023/11/14 08:53:04;;;;;;;;;;;;;;;12.53;100.00;100199.69;5049744;28;20420;-40
2023/11/14 08:55:30;;;;;;;;;;;;;;;12.58;100.00;100207.16;5053208;28;19917;-40
2023/11/14 08:57:55;;;;;;;;;;;;;;;12.72;100.00;100201.53;5049833;28;19995;-40
2023/11/14 09:00:22;;;;;;;;;;;;;;;12.85;100.00;100197.13;5044192;28;19962;-41
2023/11/14 09:02:47;;;;;;;;;;;;;;;12.95;100.00;100205.63;5053084;28;19923;-40
2023/11/14 09:05:12;;;;;;;;;;;;;;;13.15;100.00;100209.06;5049761;28;19913;-40
2023/11/14 09:07:37;;;;;;;;;;;;;;;13.47;100.00;100200.22;5057462;28;19917;-40
2023/11/14 09:10:04;;;;;;;;;;;;;;;13.63;100.00;100193.47;5047125;28;19923;-40
2023/11/14 09:12:30;;;;;;;;;;;;;;;13.63;100.00;100193.47;5052404;28;19960;-40
2023/11/14 09:14:56;;;;;;;;;;;;;;;13.59;100.00;100195.81;5045464;28;19913;-41
2023/11/14 09:17:21;;;;;;;;;;;;;;;13.61;100.00;100207.19;5049920;28;20291;-39
2023/11/14 09:19:48;;;;;;;;;;;;;;;13.60;100.00;100195.56;5048271;28;20008;-40
2023/11/14 09:22:13;;;;;;;;;;;;;;;13.66;100.00;100195.75;5050148;28;20291;-39
2023/11/14 09:24:38;;;;;;;;;;;;;;;13.67;100.00;100197.41;5043651;28;19952;-41
2023/11/14 09:27:04;;;;;;;;;;;;;;;13.82;100.00;100206.88;5055311;28;19913;-40
2023/11/14 09:29:29;;;;;;;;;;;;;;;13.88;100.00;100202.47;5059218;28;20291;-41
2023/11/14 09:31:55;;;;;;;;;;;;;;;13.98;100.00;100199.25;5046101;28;19925;-40
2023/11/14 09:34:20;;;;;;;;;;;;;;;14.18;100.00;100218.88;5050806;28;20666;-41
2023/11/14 09:36:45;;;;;;;;;;;;;;;14.11;100.00;100215.38;5043861;28;19917;-39
2023/11/14 09:39:12;;;;;;;;;;;;;;;14.16;100.00;100209.31;5051169;28;20011;-40
2023/11/14 09:41:37;;;;;;;;;;;;;;;14.14;100.00;100214.09;5047307;28;19913;-41
2023/11/14 09:44:03;;;;;;;;;;;;;;;13.89;100.00;100198.69;5033867;28;19931;-40
2023/11/14 09:46:32;;;;;;;;;;;;;;;13.83;100.00;100211.22;5050423;28;20393;-40
2023/11/14 09:48:57;;;;;;;;;;;;;;;13.69;100.00;100212.38;5035568;28;19917;-41
2023/11/14 09:51:23;;;;;;;;;;;;;;;13.58;100.00;100200.34;5047763;28;19921;-41
2023/11/14 09:53:48;;;;;;;;;;;;;;;13.54;100.00;100209.13;5036955;28;19917;-42
2023/11/14 09:56:15;;;;;;;;;;;;;;;13.54;100.00;100195.63;5054514;28;19919;-41
2023/11/14 09:58:40;;;;;;;;;;;;;;;13.57;100.00;100198.72;5048460;28;19929;-40
2023/11/14 10:01:05;;;;;;;;;;;;;;;13.56;100.00;100207.88;5053586;28;20007;-41
2023/11/14 10:03:31;;;;;;;;;;;;;;;13.56;100.00;100207.03;5047411;28;19917;-40
2023/11/14 10:05:56;;;;;;;;;;;;;;;13.44;100.00;100206.06;5056179;28;19920;-40
2023/11/14 10:08:22;;;;;;;;;;;;;;;13.37;100.00;100208.78;5048817;28;20378;-40
2023/11/14 10:11:02;;;;;;;;;;;;;;;13.31;100.00;100207.78;5029318;28;20012;-40
2023/11/14 10:13:27;;;;;;;;;;;;;;;13.44;100.00;100214.19;5059051;28;19917;-40
2023/11/14 10:15:52;;;;;;;;;;;;;;;13.47;100.00;100217.28;5053590;28;20329;-40
2023/11/14 10:18:28;;;;;;;;;;;;;;;13.51;100.00;100206.88;5054062;28;20298;-41
2023/11/14 10:20:53;;;;;;;;;;;;;;;13.44;100.00;100217.72;5049820;28;19920;-41
2023/11/14 10:23:20;;;;;;;;;;;;;;;13.45;100.00;100207.72;5057948;28;19927;-40
2023/11/14 10:25:46;;;;;;;;;;;;;;;13.43;100.00;100205.25;5035521;28;20406;-41
2023/11/14 10:28:11;;;;;;;;;;;;;;;13.48;100.00;100207.28;5053927;28;19916;-40
2023/11/14 10:30:44;;;;;;;;;;;;;;;13.48;100.00;100197.31;5038920;28;20408;-40
2023/11/14 10:33:09;;;;;;;;;;;;;;;13.60;100.00;100205.56;5040574;28;20397;-38
2023/11/14 10:35:35;;;;;;;;;;;;;;;13.60;100.00;100200.97;5050484;28;19921;-40
2023/11/14 10:38:20;;;;;;;;;;;;;;;13.71;100.00;100201.31;5053056;28;20058;-40
2023/11/14 10:40:45;;;;;;;;;;;;;;;13.84;100.00;100190.41;5053093;28;19999;-41
2023/11/14 10:43:10;;;;;;;;;;;;;;;13.90;100.00;100194.09;5047691;28;19956;-40
2023/11/14 10:45:38;;;;;;;;;;;;;;;13.88;100.00;100188.13;5054955;28;20498;-41
2023/11/14 10:48:04;;;;;;;;;;;;;;;13.94;100.00;100198.06;5034275;28;19924;-40
2023/11/14 10:50:30;;;;;;;;;;;;;;;13.88;100.00;100196.22;5052841;28;19916;-40
2023/11/14 10:52:56;;;;;;;;;;;;;;;13.95;100.00;100186.16;5053869;28;19917;-39
2023/11/14 10:55:22;;;;;;;;;;;;;;;13.88;100.00;100180.81;5053886;28;19935;-40
2023/11/14 10:57:50;;;;;;;;;;;;;;;13.90;100.00;100177.88;5053760;28;20405;-39
2023/11/14 11:00:16;;;;;;;;;;;;;;;13.75;100.00;100173.63;5053592;28;19917;-40
2023/11/14 11:02:42;;;;;;;;;;;;;;;13.69;100.00;100171.81;5054734;28;19923;-40
2023/11/14 11:05:09;;;;;;;;;;;;;;;13.82;100.00;100170.88;5037247;28;20299;-40
2023/11/14 11:07:36;;;;;;;;;;;;;;;13.75;100.00;100173.63;5058046;28;20382;-39
2023/11/14 11:10:01;;;;;;;;;;;;;;;13.74;100.00;100171.13;5058570;28;19917;-41
2023/11/14 11:12:26;;;;;;;;;;;;;;;13.77;100.00;100168.84;5059473;28;19971;-40
2023/11/14 11:14:52;;;;;;;;;;;;;;;13.76;100.00;100161.75;5060157;28;19913;-39
2023/11/14 11:17:44;;;;;;;;;;;;;;;13.77;100.00;100155.31;5040808;28;19916;-40
2023/11/14 11:20:11;;;;;;;;;;;;;;;13.76;100.00;100156.34;5036775;28;19913;-41
2023/11/14 11:22:59;;;;;;;;;;;;;;;13.73;100.00;100148.69;5053913;28;19917;-41
2023/11/14 11:25:29;;;;;;;;;;;;;;;13.67;100.00;100152.28;5057833;28;19915;-41
2023/11/14 11:27:54;;;;;;;;;;;;;;;13.59;100.00;100150.66;5054224;28;19913;-41
2023/11/14 11:30:19;;;;;;;;;;;;;;;13.62;100.00;100146.69;5053941;28;19931;-40
2023/11/14 11:32:48;;;;;;;;;;;;;;;13.57;100.00;100146.50;5053895;28;20225;-40
2023/11/14 11:35:16;;;;;;;;;;;;;;;13.56;100.00;100145.69;5060925;28;19913;-39
2023/11/14 11:37:47;;;;;;;;;;;;;;;13.44;100.00;100144.72;5054553;28;19917;-41
2023/11/14 11:40:13;;;;;;;;;;;;;;;13.37;100.00;100158.25;5058673;28;19917;-39
2023/11/14 11:42:42;;;;;;;;;;;;;;;13.31;100.00;100148.34;5055447;28;19928;-40
2023/11/14 11:45:26;;;;;;;;;;;;;;;13.23;100.00;100150.44;5056455;28;20411;-39
2023/11/14 11:47:51;;;;;;;;;;;;;;;13.20;100.00;100142.78;5055007;28;19917;-39
2023/11/14 11:50:38;;;;;;;;;;;;;;;13.16;100.00;100148.59;5055958;28;20328;-39
2023/11/14 11:53:06;;;;;;;;;;;;;;;13.19;100.00;100163.53;5055817;28;19962;-40
2023/11/14 11:55:32;;;;;;;;;;;;;;;13.16;100.00;100150.47;5051241;28;19939;-40
2023/11/14 11:58:08;;;;;;;;;;;;;;;13.10;100.00;100152.16;5057166;28;19920;-40
2023/11/14 12:00:33;;;;;;;;;;;;;;;13.01;100.00;100153.47;5056722;28;19916;-40
2023/11/14 12:02:59;;;;;;;;;;;;;;;13.03;100.00;100150.53;5053727;28;19970;-41
2023/11/14 12:05:25;;;;;;;;;;;;;;;13.08;100.00;100139.91;5045921;28;19952;-40
2023/11/14 12:07:50;;;;;;;;;;;;;;;13.00;100.00;100134.75;5052669;28;19967;-40
2023/11/14 12:10:18;;;;;;;;;;;;;;;12.95;100.00;100114.63;5056837;28;19943;-41
2023/11/14 12:12:44;;;;;;;;;;;;;;;12.99;100.00;100116.91;5058308;28;19978;-40
2023/11/14 12:15:15;;;;;;;;;;;;;;;12.95;100.00;100101.13;5061147;28;19916;-39
2023/11/14 12:17:40;;;;;;;;;;;;;;;12.98;100.00;100104.41;5028610;28;19917;-41
2023/11/14 12:20:09;;;;;;;;;;;;;;;12.95;100.00;100102.97;5060498;28;20016;-41
2023/11/14 12:22:35;;;;;;;;;;;;;;;12.91;100.00;100105.28;5060125;28;19966;-39